createdAt,value
2023-03-20T00:02:22.581Z,10.87
2023-03-20T00:04:49.122Z,10.87
2023-03-20T00:07:21.787Z,10.88
2023-03-20T00:09:51.802Z,10.89
2023-03-20T00:12:28.775Z,10.91
2023-03-20T00:14:55.606Z,10.93
2023-03-20T00:17:22.116Z,10.93
2023-03-20T00:19:48.973Z,10.88
2023-03-20T00:22:15.483Z,10.83
2023-03-20T00:24:42.086Z,10.82
2023-03-20T00:27:13.811Z,10.81
2023-03-20T00:29:40.537Z,10.83
2023-03-20T00:32:16.041Z,10.86
2023-03-20T00:34:48.809Z,10.89
2023-03-20T00:37:15.437Z,10.92
2023-03-20T00:39:41.929Z,10.90
2023-03-20T00:42:20.571Z,10.92
2023-03-20T00:44:55.698Z,10.95
2023-03-20T00:47:24.292Z,10.94
2023-03-20T00:49:52.460Z,10.94
2023-03-20T00:52:20.670Z,10.97
2023-03-20T00:54:47.379Z,10.98
2023-03-20T00:57:26.588Z,11.00
2023-03-20T01:00:11.849Z,11.03
2023-03-20T01:02:38.618Z,11.00
2023-03-20T01:05:06.579Z,10.99
2023-03-20T01:07:33.822Z,10.99
2023-03-20T01:10:00.474Z,10.97
2023-03-20T01:12:27.389Z,10.95
2023-03-20T01:14:56.733Z,10.95
2023-03-20T01:17:24.610Z,10.94
2023-03-20T01:19:51.125Z,10.90
2023-03-20T01:22:18.253Z,10.89
2023-03-20T01:24:45.472Z,10.90
2023-03-20T01:27:17.814Z,10.91
2023-03-20T01:29:44.957Z,10.95
2023-03-20T01:32:22.245Z,10.95
2023-03-20T01:34:48.948Z,10.93
2023-03-20T01:37:27.180Z,10.91
2023-03-20T01:39:54.370Z,10.90
2023-03-20T01:42:20.925Z,10.90
2023-03-20T01:44:48.486Z,10.89
2023-03-20T01:47:28.435Z,10.88
2023-03-20T01:50:19.753Z,10.89
2023-03-20T01:52:48.838Z,10.88
2023-03-20T01:55:15.572Z,10.87
2023-03-20T01:57:42.124Z,10.88
2023-03-20T02:00:15.560Z,10.90
2023-03-20T02:02:45.134Z,10.89
2023-03-20T02:05:14.350Z,10.91
2023-03-20T02:07:40.927Z,10.90
2023-03-20T02:10:19.024Z,10.90
2023-03-20T02:12:47.423Z,10.92
2023-03-20T02:15:16.966Z,10.90
2023-03-20T02:17:44.295Z,10.88
2023-03-20T02:20:25.502Z,10.87
2023-03-20T02:23:00.765Z,10.87
2023-03-20T02:25:52.778Z,10.87
2023-03-20T02:28:33.599Z,10.86
2023-03-20T02:31:15.453Z,10.86
2023-03-20T02:33:47.657Z,10.87
2023-03-20T02:36:32.340Z,10.86
2023-03-20T02:39:29.579Z,10.89
2023-03-20T02:41:59.101Z,10.88
2023-03-20T02:44:40.212Z,10.83
2023-03-20T02:47:47.844Z,10.74
2023-03-20T02:50:27.841Z,10.65
2023-03-20T02:53:12.846Z,10.62
2023-03-20T02:55:44.027Z,10.57
2023-03-20T02:58:22.498Z,10.33
2023-03-20T03:01:03.575Z,10.19
2023-03-20T03:03:51.416Z,10.10
2023-03-20T03:06:24.224Z,10.02
2023-03-20T03:09:00.163Z,9.95
2023-03-20T03:11:26.717Z,9.91
2023-03-20T03:13:56.306Z,9.91
2023-03-20T03:16:27.807Z,9.95
2023-03-20T03:19:13.175Z,9.96
2023-03-20T03:21:40.765Z,9.99
2023-03-20T03:24:39.923Z,9.98
2023-03-20T03:27:18.733Z,9.98
2023-03-20T03:29:51.422Z,10.00
2023-03-20T03:32:33.497Z,9.96
2023-03-20T03:35:01.601Z,9.96
2023-03-20T03:37:34.127Z,9.98
2023-03-20T03:40:08.068Z,9.98
2023-03-20T03:43:32.196Z,10.05
2023-03-20T03:46:09.389Z,10.08
2023-03-20T03:48:43.759Z,10.06
2023-03-20T03:51:17.870Z,10.07
2023-03-20T03:53:52.302Z,10.06
2023-03-20T03:56:24.111Z,10.03
2023-03-20T03:58:57.813Z,10.03
2023-03-20T04:01:27.502Z,9.98
2023-03-20T04:04:00.965Z,9.94
2023-03-20T04:06:28.448Z,9.96
2023-03-20T04:08:55.169Z,9.91
2023-03-20T04:11:24.611Z,9.90
2023-03-20T04:13:52.359Z,9.88
2023-03-20T04:16:20.997Z,9.88
2023-03-20T04:18:48.024Z,9.89
2023-03-20T04:21:16.120Z,9.87
2023-03-20T04:23:43.349Z,9.89
2023-03-20T04:26:09.957Z,9.86
2023-03-20T04:28:36.832Z,9.83
2023-03-20T04:31:04.002Z,9.83
2023-03-20T04:33:30.777Z,9.79
2023-03-20T04:35:57.638Z,9.78
2023-03-20T04:38:24.707Z,9.75
2023-03-20T04:40:51.510Z,9.73
2023-03-20T04:43:18.272Z,9.72
2023-03-20T04:45:44.795Z,9.74
2023-03-20T04:48:11.324Z,9.76
2023-03-20T04:50:38.070Z,9.73
2023-03-20T04:53:05.060Z,9.73
2023-03-20T04:55:31.884Z,9.70
2023-03-20T04:57:58.525Z,9.74
2023-03-20T05:00:25.175Z,9.74
2023-03-20T05:02:51.697Z,9.73
2023-03-20T05:05:18.148Z,9.70
2023-03-20T05:07:44.789Z,9.67
2023-03-20T05:10:14.777Z,9.71
2023-03-20T05:12:41.358Z,9.65
2023-03-20T05:15:08.536Z,9.62
2023-03-20T05:17:35.256Z,9.58
2023-03-20T05:20:01.847Z,9.55
2023-03-20T05:22:28.390Z,9.50
2023-03-20T05:24:54.862Z,9.50
2023-03-20T05:27:21.308Z,9.48
2023-03-20T05:29:47.900Z,9.49
2023-03-20T05:32:15.629Z,9.47
2023-03-20T05:34:42.117Z,9.48
2023-03-20T05:37:08.662Z,9.47
2023-03-20T05:39:35.506Z,9.48
2023-03-20T05:42:02.022Z,9.50
2023-03-20T05:44:28.561Z,9.48
2023-03-20T05:46:55.301Z,9.46
2023-03-20T05:49:21.817Z,9.48
2023-03-20T05:51:48.411Z,9.54
2023-03-20T05:54:16.186Z,9.56
2023-03-20T05:56:42.682Z,9.62
2023-03-20T05:59:09.193Z,9.59
2023-03-20T06:01:35.742Z,9.61
2023-03-20T06:04:02.412Z,9.63
2023-03-20T06:06:28.914Z,9.64
2023-03-20T06:08:55.384Z,9.63
2023-03-20T06:11:21.819Z,9.63
2023-03-20T06:13:49.382Z,9.65
2023-03-20T06:16:15.944Z,9.73
2023-03-20T06:18:42.455Z,9.81
2023-03-20T06:21:09.349Z,9.81
2023-03-20T06:23:36.341Z,9.81
2023-03-20T06:26:02.951Z,9.85
2023-03-20T06:28:30.104Z,9.89
2023-03-20T06:30:57.190Z,9.94
2023-03-20T06:33:24.837Z,9.90
2023-03-20T06:35:51.335Z,9.86
2023-03-20T06:38:17.818Z,9.86
2023-03-20T06:40:45.222Z,9.84
2023-03-20T06:43:12.549Z,9.81
2023-03-20T06:45:39.237Z,9.77
2023-03-20T06:48:09.444Z,9.75
2023-03-20T06:50:36.484Z,9.74
2023-03-20T06:53:03.502Z,9.79
2023-03-20T06:55:30.270Z,9.79
2023-03-20T06:57:56.993Z,9.81
2023-03-20T07:00:23.898Z,9.82
2023-03-20T07:02:50.434Z,9.85
2023-03-20T07:05:17.592Z,9.86
2023-03-20T07:07:44.221Z,9.89
2023-03-20T07:10:12.423Z,9.97
2023-03-20T07:12:39.445Z,10.05
2023-03-20T07:15:09.532Z,10.07
2023-03-20T07:17:35.995Z,10.02
2023-03-20T07:20:03.097Z,9.98
2023-03-20T07:22:31.330Z,9.94
2023-03-20T07:24:58.252Z,9.93
2023-03-20T07:27:24.763Z,9.93
2023-03-20T07:29:51.422Z,9.93
2023-03-20T07:32:18.100Z,9.98
2023-03-20T07:34:45.008Z,10.00
2023-03-20T07:37:11.591Z,10.01
2023-03-20T07:39:38.101Z,10.05
2023-03-20T07:42:04.889Z,10.05
2023-03-20T07:44:31.371Z,10.01
2023-03-20T07:46:57.986Z,10.02
2023-03-20T07:49:24.455Z,9.96
2023-03-20T07:51:51.007Z,9.96
2023-03-20T07:54:17.942Z,9.97
2023-03-20T07:56:44.453Z,9.98
2023-03-20T07:59:12.760Z,9.98
2023-03-20T08:01:39.590Z,9.96
2023-03-20T08:04:06.284Z,10.02
2023-03-20T08:06:32.881Z,10.03
2023-03-20T08:08:59.558Z,10.03
2023-03-20T08:11:26.359Z,10.05
2023-03-20T08:13:52.903Z,10.03
2023-03-20T08:16:19.778Z,10.06
2023-03-20T08:18:52.638Z,10.07
2023-03-20T08:21:19.783Z,10.06
2023-03-20T08:23:46.222Z,10.11
2023-03-20T08:26:13.035Z,10.10
2023-03-20T08:28:47.471Z,10.06
2023-03-20T08:31:15.679Z,10.08
2023-03-20T08:33:42.146Z,10.06
2023-03-20T08:36:09.042Z,10.06
2023-03-20T08:38:35.959Z,10.11
2023-03-20T08:41:02.716Z,10.11
2023-03-20T08:43:29.449Z,10.13
2023-03-20T08:45:56.127Z,10.17
2023-03-20T08:48:22.686Z,10.24
2023-03-20T08:50:49.213Z,10.23
2023-03-20T08:53:15.736Z,10.27
2023-03-20T08:55:48.022Z,10.25
2023-03-20T08:58:14.581Z,10.22
2023-03-20T09:00:42.063Z,10.25
2023-03-20T09:03:14.849Z,10.23
2023-03-20T09:05:44.243Z,10.23
2023-03-20T09:08:10.905Z,10.12
2023-03-20T09:10:37.454Z,10.14
2023-03-20T09:13:15.481Z,10.17
2023-03-20T09:15:51.413Z,10.19
2023-03-20T09:18:19.611Z,10.22
2023-03-20T09:20:47.248Z,10.30
2023-03-20T09:23:13.786Z,10.27
2023-03-20T09:25:40.757Z,10.30
2023-03-20T09:28:07.557Z,10.35
2023-03-20T09:30:34.612Z,10.53
2023-03-20T09:33:01.322Z,10.65
2023-03-20T09:35:27.950Z,10.73
2023-03-20T09:37:54.453Z,10.76
2023-03-20T09:40:31.281Z,10.66
2023-03-20T09:43:10.187Z,10.70
2023-03-20T09:46:08.442Z,10.79
2023-03-20T09:48:44.666Z,10.79
2023-03-20T09:51:35.867Z,10.84
2023-03-20T09:54:10.884Z,10.97
2023-03-20T09:56:38.043Z,10.95
2023-03-20T09:59:06.675Z,10.96
2023-03-20T10:01:48.352Z,10.94
2023-03-20T10:04:14.971Z,10.97
2023-03-20T10:06:41.500Z,10.87
2023-03-20T10:09:24.801Z,10.70
2023-03-20T10:12:00.603Z,10.61
2023-03-20T10:14:45.059Z,10.58
2023-03-20T10:17:48.785Z,10.66
2023-03-20T10:20:24.092Z,10.86
2023-03-20T10:23:00.691Z,10.81
2023-03-20T10:25:53.921Z,10.93
2023-03-20T10:28:45.846Z,11.13
2023-03-20T10:31:31.288Z,11.31
2023-03-20T10:34:03.509Z,11.27
2023-03-20T10:36:39.002Z,11.24
2023-03-20T10:39:37.739Z,11.25
2023-03-20T10:42:14.680Z,11.33
2023-03-20T10:44:45.237Z,11.37
2023-03-20T10:47:17.045Z,11.36
2023-03-20T10:49:46.187Z,11.30
2023-03-20T10:52:18.038Z,11.30
2023-03-20T10:54:47.388Z,11.27
2023-03-20T10:57:26.317Z,11.14
2023-03-20T10:59:58.331Z,11.11
2023-03-20T11:02:30.868Z,11.20
2023-03-20T11:05:00.609Z,11.27
2023-03-20T11:07:32.196Z,11.23
2023-03-20T11:10:04.800Z,11.05
2023-03-20T11:12:37.456Z,11.00
2023-03-20T11:15:20.566Z,10.98
2023-03-20T11:18:01.552Z,11.07
2023-03-20T11:20:35.690Z,11.04
2023-03-20T11:23:08.436Z,11.01
2023-03-20T11:25:38.507Z,10.93
2023-03-20T11:28:40.656Z,10.94
2023-03-20T11:31:35.271Z,10.92
2023-03-20T11:34:04.629Z,10.94
2023-03-20T11:36:34.595Z,10.99
2023-03-20T11:39:10.396Z,11.11
2023-03-20T11:41:49.973Z,11.13
2023-03-20T11:44:23.892Z,11.19
2023-03-20T11:46:57.716Z,11.12
2023-03-20T11:49:27.619Z,11.05
2023-03-20T11:51:59.730Z,11.11
2023-03-20T11:54:27.064Z,11.07
2023-03-20T11:56:58.728Z,11.11
2023-03-20T11:59:34.319Z,11.15
2023-03-20T12:02:04.890Z,11.28
2023-03-20T12:04:43.964Z,11.26
2023-03-20T12:07:17.933Z,11.33
2023-03-20T12:10:10.461Z,11.31
2023-03-20T12:12:46.682Z,11.26
2023-03-20T12:15:13.127Z,11.37
2023-03-20T12:17:46.148Z,11.50
2023-03-20T12:20:37.377Z,11.50
2023-03-20T12:23:09.924Z,11.32
2023-03-20T12:25:58.182Z,11.24
2023-03-20T12:28:40.632Z,11.19
2023-03-20T12:31:16.253Z,11.11
2023-03-20T12:34:10.462Z,11.07
2023-03-20T12:36:47.032Z,11.09
2023-03-20T12:39:24.151Z,11.20
2023-03-20T12:41:59.844Z,11.25
2023-03-20T12:44:48.482Z,11.32
2023-03-20T12:47:42.763Z,11.17
2023-03-20T12:50:18.203Z,11.21
2023-03-20T12:53:23.171Z,11.42
2023-03-20T12:55:52.244Z,11.39
2023-03-20T12:58:43.527Z,11.31
2023-03-20T13:01:47.469Z,11.28
2023-03-20T13:04:38.747Z,11.35
2023-03-20T13:07:20.512Z,11.31
2023-03-20T13:10:12.541Z,11.22
2023-03-20T13:13:12.962Z,11.25
2023-03-20T13:16:08.817Z,11.38
2023-03-20T13:18:53.995Z,11.47
2023-03-20T13:21:33.032Z,11.53
2023-03-20T13:24:32.158Z,11.37
2023-03-20T13:27:01.583Z,11.41
2023-03-20T13:29:42.007Z,11.44
2023-03-20T13:32:31.520Z,11.62
2023-03-20T13:35:25.222Z,11.65
2023-03-20T13:37:58.929Z,11.53
2023-03-20T13:40:33.685Z,11.43
2023-03-20T13:43:30.929Z,11.46
2023-03-20T13:46:08.730Z,11.54
2023-03-20T13:48:45.785Z,11.53
2023-03-20T13:51:15.310Z,11.57
2023-03-20T13:54:07.009Z,11.46
2023-03-20T13:56:59.983Z,11.34
2023-03-20T13:59:51.006Z,11.35
2023-03-20T14:02:29.355Z,11.43
2023-03-20T14:05:12.102Z,11.42
2023-03-20T14:07:44.470Z,11.42
2023-03-20T14:10:25.996Z,11.37
2023-03-20T14:13:00.510Z,11.35
2023-03-20T14:15:31.934Z,11.28
2023-03-20T14:18:03.237Z,11.22
2023-03-20T14:20:34.231Z,11.14
2023-03-20T14:23:01.756Z,11.14
2023-03-20T14:25:35.064Z,11.21
2023-03-20T14:28:09.587Z,11.36
2023-03-20T14:30:36.640Z,11.41
2023-03-20T14:33:24.174Z,11.39
2023-03-20T14:36:11.288Z,11.42
2023-03-20T14:38:57.150Z,11.45
2023-03-20T14:42:05.409Z,11.44
2023-03-20T14:44:49.920Z,11.40
2023-03-20T14:47:34.068Z,11.41
2023-03-20T14:50:28.025Z,11.42
2023-03-20T14:53:15.343Z,11.43
2023-03-20T14:55:51.298Z,11.42
2023-03-20T14:58:51.265Z,11.35
2023-03-20T15:01:20.814Z,11.32
2023-03-20T15:04:04.970Z,11.34
2023-03-20T15:06:33.344Z,11.35
2023-03-20T15:09:06.856Z,11.32
2023-03-20T15:11:34.931Z,11.34
2023-03-20T15:14:06.454Z,11.41
2023-03-20T15:16:36.931Z,11.39
2023-03-20T15:19:18.093Z,11.43
2023-03-20T15:21:46.072Z,11.43
2023-03-20T15:24:26.985Z,11.38
2023-03-20T15:26:57.648Z,11.38
2023-03-20T15:29:24.779Z,11.41
2023-03-20T15:32:14.062Z,11.37
2023-03-20T15:34:42.581Z,11.31
2023-03-20T15:37:15.389Z,11.21
2023-03-20T15:39:45.311Z,11.22
2023-03-20T15:42:17.270Z,11.27
2023-03-20T15:44:45.202Z,11.29
2023-03-20T15:47:20.718Z,11.22
2023-03-20T15:49:57.176Z,11.22
2023-03-20T15:52:32.099Z,11.16
2023-03-20T15:55:02.792Z,11.14
2023-03-20T15:57:38.681Z,11.06
2023-03-20T16:00:08.244Z,11.04
2023-03-20T16:02:39.071Z,11.02
2023-03-20T16:05:12.771Z,10.95
2023-03-20T16:07:39.265Z,10.89
2023-03-20T16:10:43.024Z,10.86
2023-03-20T16:13:19.519Z,10.82
2023-03-20T16:15:46.485Z,10.78
2023-03-20T16:18:18.065Z,10.75
2023-03-20T16:20:48.893Z,10.76
2023-03-20T16:23:27.346Z,10.75
2023-03-20T16:25:59.014Z,10.73
2023-03-20T16:28:27.915Z,10.73
2023-03-20T16:31:10.453Z,10.68
2023-03-20T16:33:39.660Z,10.69
2023-03-20T16:36:07.011Z,10.64
2023-03-20T16:38:35.939Z,10.57
2023-03-20T16:41:21.360Z,10.55
2023-03-20T16:43:51.594Z,10.52
2023-03-20T16:46:26.512Z,10.48
2023-03-20T16:48:58.709Z,10.41
2023-03-20T16:51:30.786Z,10.35
2023-03-20T16:53:59.443Z,10.32
2023-03-20T16:56:34.435Z,10.29
2023-03-20T16:59:17.275Z,10.27
2023-03-20T17:01:48.171Z,10.22
2023-03-20T17:04:20.798Z,10.22
2023-03-20T17:06:50.787Z,10.19
2023-03-20T17:09:25.892Z,10.19
2023-03-20T17:12:02.504Z,10.17
2023-03-20T17:14:29.779Z,10.15
2023-03-20T17:16:57.776Z,10.16
2023-03-20T17:19:24.810Z,10.10
2023-03-20T17:21:51.617Z,10.08
2023-03-20T17:24:18.496Z,10.06
2023-03-20T17:26:52.138Z,10.03
2023-03-20T17:29:18.838Z,9.96
2023-03-20T17:31:46.080Z,9.89
2023-03-20T17:34:14.899Z,9.84
2023-03-20T17:36:41.925Z,9.84
2023-03-20T17:39:16.931Z,9.81
2023-03-20T17:41:43.555Z,9.76
2023-03-20T17:44:10.113Z,9.74
2023-03-20T17:46:53.858Z,9.71
2023-03-20T17:49:26.921Z,9.73
2023-03-20T17:51:54.375Z,9.68
2023-03-20T17:54:21.421Z,9.65
2023-03-20T17:56:48.046Z,9.66
2023-03-20T17:59:14.679Z,9.66
2023-03-20T18:01:41.784Z,9.63
2023-03-20T18:04:08.445Z,9.63
2023-03-20T18:06:34.953Z,9.60
2023-03-20T18:09:05.959Z,9.58
2023-03-20T18:11:32.489Z,9.60
2023-03-20T18:14:01.891Z,9.61
2023-03-20T18:16:28.489Z,9.58
2023-03-20T18:18:55.745Z,9.55
2023-03-20T18:21:22.299Z,9.55
2023-03-20T18:23:48.926Z,9.55
2023-03-20T18:26:22.561Z,9.55
2023-03-20T18:28:50.610Z,9.52
2023-03-20T18:31:20.583Z,9.52
2023-03-20T18:33:52.472Z,9.51
2023-03-20T18:36:21.628Z,9.49
2023-03-20T18:38:48.817Z,9.43
2023-03-20T18:41:18.043Z,9.41
2023-03-20T18:43:46.489Z,9.43
2023-03-20T18:46:15.321Z,9.42
2023-03-20T18:48:42.712Z,9.40
2023-03-20T18:51:09.608Z,9.36
2023-03-20T18:53:36.429Z,9.37
2023-03-20T18:56:03.106Z,9.37
2023-03-20T18:58:31.770Z,9.36
2023-03-20T19:00:59.743Z,9.35
2023-03-20T19:03:28.450Z,9.34
2023-03-20T19:05:57.973Z,9.29
2023-03-20T19:08:24.824Z,9.28
2023-03-20T19:10:51.393Z,9.29
2023-03-20T19:13:20.203Z,9.31
2023-03-20T19:15:47.034Z,9.31
2023-03-20T19:18:17.683Z,9.29
2023-03-20T19:20:48.014Z,9.25
2023-03-20T19:23:16.568Z,9.24
2023-03-20T19:25:45.915Z,9.24
2023-03-20T19:28:21.637Z,9.23
2023-03-20T19:30:49.051Z,9.21
2023-03-20T19:33:15.532Z,9.23
2023-03-20T19:38:29.245Z,9.32
2023-03-20T19:40:55.898Z,9.22
2023-03-20T19:43:23.284Z,9.19
2023-03-20T19:45:59.222Z,9.20
2023-03-20T19:48:49.556Z,9.21
2023-03-20T19:51:20.819Z,9.18
2023-03-20T19:53:48.191Z,9.20
2023-03-20T19:56:16.832Z,9.16
2023-03-20T19:58:44.400Z,9.19
2023-03-20T20:01:16.806Z,9.16
2023-03-20T20:03:43.892Z,9.17
2023-03-20T20:06:10.493Z,9.18
2023-03-20T20:08:49.145Z,9.18
2023-03-20T20:11:20.550Z,9.16
2023-03-20T20:14:04.753Z,9.13
2023-03-20T20:16:32.979Z,9.18
2023-03-20T20:18:59.492Z,9.16
2023-03-20T20:22:13.481Z,9.14
2023-03-20T20:24:12.734Z,9.14
2023-03-20T20:26:47.884Z,9.13
2023-03-20T20:29:19.660Z,9.11
2023-03-20T20:31:46.214Z,9.11
2023-03-20T20:35:15.192Z,9.08
2023-03-20T20:39:46.179Z,9.04
2023-03-20T20:42:12.956Z,9.05
2023-03-20T20:44:40.863Z,9.04
2023-03-20T20:47:08.407Z,9.04
2023-03-20T20:49:35.158Z,9.05
2023-03-20T20:52:01.927Z,9.01
2023-03-20T20:54:28.994Z,9.01
2023-03-20T20:56:56.155Z,8.98
2023-03-20T20:59:23.350Z,8.93
2023-03-20T21:01:50.648Z,8.91
2023-03-20T21:04:17.309Z,8.85
2023-03-20T21:07:08.099Z,8.82
2023-03-20T21:09:30.382Z,8.80
2023-03-20T21:11:56.875Z,8.76
2023-03-20T21:14:23.436Z,8.68
2023-03-20T21:16:49.899Z,8.66
2023-03-20T21:19:16.422Z,8.64
2023-03-20T21:21:42.908Z,8.66
2023-03-20T21:24:30.558Z,8.68
2023-03-20T21:26:59.220Z,8.64
2023-03-20T21:29:26.828Z,8.60
2023-03-20T21:31:53.574Z,8.58
2023-03-20T21:34:20.303Z,8.57
2023-03-20T21:36:49.198Z,8.56
2023-03-20T21:39:17.485Z,8.59
2023-03-20T21:41:45.260Z,8.67
2023-03-20T21:44:17.217Z,8.59
2023-03-20T21:56:00.220Z,8.49
2023-03-20T21:58:44.523Z,8.46
2023-03-20T22:04:06.184Z,8.38
2023-03-20T22:10:05.675Z,8.29
2023-03-20T22:12:28.294Z,8.27
2023-03-20T22:15:29.046Z,8.35
2023-03-20T22:23:43.257Z,8.29
2023-03-20T22:37:37.768Z,8.33
2023-03-20T22:45:17.888Z,8.35
2023-03-20T22:47:44.596Z,8.37
2023-03-20T22:50:11.050Z,8.38
2023-03-20T22:52:48.713Z,8.36
2023-03-20T22:55:17.062Z,8.34
2023-03-20T22:57:56.267Z,8.34
2023-03-20T23:00:30.535Z,8.33
2023-03-20T23:03:06.706Z,8.34
2023-03-20T23:05:40.980Z,8.41
2023-03-20T23:08:08.985Z,8.39
2023-03-20T23:10:37.817Z,8.38
2023-03-20T23:13:04.826Z,8.36
2023-03-20T23:15:31.683Z,8.35
2023-03-20T23:17:58.236Z,8.34
2023-03-20T23:20:25.354Z,8.33
2023-03-20T23:22:51.863Z,8.39
2023-03-20T23:25:31.130Z,8.39
2023-03-20T23:28:05.372Z,8.40
2023-03-20T23:30:41.963Z,8.42
2023-03-20T23:33:11.710Z,8.43
2023-03-20T23:35:38.321Z,8.46
2023-03-20T23:38:04.819Z,8.47
2023-03-20T23:40:31.354Z,8.46
2023-03-20T23:42:57.840Z,8.46
2023-03-20T23:45:24.444Z,8.47
2023-03-20T23:47:51.091Z,8.52
2023-03-20T23:50:28.921Z,8.53
2023-03-20T23:53:13.226Z,8.57
2023-03-20T23:55:45.288Z,8.54
2023-03-20T23:58:13.025Z,8.54
